Etusivu
METAR-TAF:

METAR-TAF

Lentoasemat :

Thief River Falls Regional Airport

Thief River Falls, Minnesota, Yhdysvallat

Leveyspiiri: 48-04N, Pituuspiiri: 096-11W, korkeus merenpinnasta: 340 m

Tämänhetkinen sää

Tämä raportti tehtiin 48 minuuttia sitten, kello 02.56 UTC
Tuuli 3 kn idästä/koillisesta
Lämpötila -18°C
Kosteus 71%
Ilmanpaine 1022 hPa
Näkyvyys: 16.1 km
Muutamia pilviä 3500 ft:n korkeudessa
Pilvistä 6000 ft:n korkeudessa

METAR: KTVF 250256Z AUTO 07003KT 10SM FEW035 OVC060 M18/M22 A3019 RMK AO2 SLP261 T11831222 55002 FZRANO

Aika: 21:44 (03:44 UTC)

Sääennuste

Tämä raportti tehtiin 4 tuntia ja 19 minuuttia sitten, kello 23.25 UTC
Ennuste voimassa 25. päivästä klo 00 UTC - 25. päivään klo 24 UTC
Tuuli 6 kn koillisesta
Näkyvyys: 10 km
Pilvistä 5000 ft:n korkeudessa
From 25. päivästä klo 1200 UTC
Tuuli 7 kn koillisesta
Näkyvyys: 10 km
Hajonneita pilviä 5000 ft:n korkeudessa

TAF: KTVF 242325Z 2500/2524 05006KT P6SM OVC050 FM251200 05007KT P6SM BKN050

Säähavainnot ja -ennusteet yli 4000 lentoasemalta (METAR- ja TAF-raportit).

Käytössä olevat sääasemat on merkitty karttaan keltaisilla ja punaisilla pisteillä.

Aseta hiiri pisteen päälle nähdäksesi sääaseman nimen.

Klikkaa sitten nähdäksesi säähavainnot ja -ennusteet.

Kartan vaihtaminen: klikkaa mustalla rastilla varustettuja vihreitä pisteitä, niin voit zoomata sisään; viivalla varustettua vihreää pistettä, niin voit zoomata ulos tai vihreitä nuolia, niin pääset viereisille kartoille.


METAR-TAF: